Time;durP1;ratioP1;P1;durP2;ratioP2;P2;SDS_P1;SDS_P2;PMS_P1;PMS_P2;Temp;Humidity;BMP_temperature;BMP_pressure;BME280_temperature;BME280_humidity;BME280_pressure;Samples;Min_cycle;Max_cycle;Signal;HPM_P1;HPM_P2
2021/10/05 00:01:49;;;;;;;13.43;8.25;;;;;;;13.68;100.00;97704.78;5016845;28;20045;-78
2021/10/05 00:04:16;;;;;;;15.05;7.88;;;;;;;13.65;100.00;97702.75;5017271;28;20350;-79
2021/10/05 00:06:43;;;;;;;13.35;7.60;;;;;;;13.67;100.00;97720.34;5017882;28;20042;-78
2021/10/05 00:09:09;;;;;;;15.45;7.43;;;;;;;13.51;100.00;97719.34;5016115;28;20053;-77
2021/10/05 00:11:36;;;;;;;12.23;7.22;;;;;;;13.60;100.00;97719.28;5016846;28;20046;-77
2021/10/05 00:14:03;;;;;;;12.05;6.85;;;;;;;13.62;100.00;97728.72;5015913;28;20449;-76
2021/10/05 00:16:30;;;;;;;11.68;7.25;;;;;;;13.70;100.00;97727.81;4996862;28;20096;-78
2021/10/05 00:18:57;;;;;;;13.82;7.18;;;;;;;13.71;100.00;97725.91;4998052;28;20049;-78
2021/10/05 00:21:23;;;;;;;14.60;6.85;;;;;;;13.65;100.00;97717.13;4998751;28;20553;-76
2021/10/05 00:23:50;;;;;;;11.55;6.82;;;;;;;13.69;100.00;97726.25;5017144;28;20512;-76
2021/10/05 00:26:16;;;;;;;14.18;6.75;;;;;;;13.67;100.00;97716.81;4983158;28;20045;-79
2021/10/05 00:28:43;;;;;;;15.52;7.60;;;;;;;13.69;100.00;97725.44;5025688;28;20049;-79
2021/10/05 00:31:10;;;;;;;17.35;8.65;;;;;;;13.65;100.00;97725.31;4998711;28;20049;-76
2021/10/05 00:33:36;;;;;;;18.05;8.27;;;;;;;13.62;100.00;97712.38;5016708;28;20449;-78
2021/10/05 00:36:03;;;;;;;18.17;7.57;;;;;;;13.69;100.00;97712.66;5014138;28;20053;-77
2021/10/05 00:38:30;;;;;;;13.60;7.15;;;;;;;13.67;100.00;97704.03;5020609;28;20490;-79
2021/10/05 00:40:56;;;;;;;14.40;6.65;;;;;;;13.61;100.00;97702.63;5001778;28;20042;-81
2021/10/05 00:43:24;;;;;;;9.32;6.47;;;;;;;13.64;100.00;97699.25;5016125;28;20038;-79
2021/10/05 00:45:51;;;;;;;13.55;6.97;;;;;;;13.52;100.00;97682.06;4999891;28;20265;-80
2021/10/05 00:48:18;;;;;;;13.43;6.05;;;;;;;13.44;100.00;97672.84;4999681;28;20049;-79
2021/10/05 00:50:46;;;;;;;13.13;6.15;;;;;;;13.39;100.00;97661.38;5015402;28;20080;-79
2021/10/05 00:53:14;;;;;;;14.40;7.40;;;;;;;13.05;100.00;97678.69;5016251;28;20100;-79
2021/10/05 00:55:40;;;;;;;18.90;6.47;;;;;;;13.10;100.00;97667.66;4998562;28;20042;-79
2021/10/05 00:58:07;;;;;;;13.82;6.20;;;;;;;12.83;100.00;97658.03;5015762;28;20049;-76
2021/10/05 01:00:34;;;;;;;13.20;6.10;;;;;;;13.03;100.00;97659.22;5023187;28;20042;-77
2021/10/05 01:03:00;;;;;;;15.48;6.88;;;;;;;12.86;100.00;97653.88;5024112;28;20128;-80
2021/10/05 01:05:28;;;;;;;11.68;6.22;;;;;;;12.79;100.00;97654.41;5021676;28;20421;-76
2021/10/05 01:07:55;;;;;;;13.85;7.43;;;;;;;12.82;100.00;97653.75;5006864;28;20042;-76
2021/10/05 01:10:21;;;;;;;17.08;6.82;;;;;;;12.75;100.00;97650.72;5002595;28;20049;-79
2021/10/05 01:12:50;;;;;;;16.70;7.03;;;;;;;12.85;100.00;97636.75;5018032;28;20072;-80
2021/10/05 01:15:22;;;;;;;16.65;6.40;;;;;;;12.99;100.00;97645.47;5017229;28;20052;-78
2021/10/05 01:17:49;;;;;;;14.30;7.25;;;;;;;12.95;100.00;97632.88;5018013;28;20046;-81
2021/10/05 01:20:15;;;;;;;13.70;6.68;;;;;;;13.01;100.00;97629.63;5017659;28;20246;-82
2021/10/05 01:22:42;;;;;;;13.43;6.65;;;;;;;13.09;100.00;97630.72;5000468;28;20154;-78
2021/10/05 01:25:13;;;;;;;14.32;6.45;;;;;;;13.00;100.00;97616.38;5016707;28;20050;-80
2021/10/05 01:27:42;;;;;;;14.68;6.70;;;;;;;13.03;100.00;97604.84;5021179;28;20065;-79
2021/10/05 01:30:09;;;;;;;11.15;6.30;;;;;;;12.97;100.00;97592.59;4995411;28;20046;-78
2021/10/05 01:32:36;;;;;;;11.27;6.60;;;;;;;12.94;100.00;97577.75;4996765;28;20417;-81
2021/10/05 01:35:04;;;;;;;17.88;6.60;;;;;;;12.63;100.00;97571.09;5019742;28;20104;-77
2021/10/05 01:37:31;;;;;;;15.68;6.60;;;;;;;12.60;100.00;97569.81;4988668;28;20050;-79
2021/10/05 01:39:58;;;;;;;15.55;6.90;;;;;;;12.52;100.00;97567.94;5000463;28;20046;-80
2021/10/05 01:42:24;;;;;;;19.02;6.85;;;;;;;12.53;100.00;97583.13;5002345;28;20092;-79
2021/10/05 01:44:51;;;;;;;15.13;6.90;;;;;;;12.66;100.00;97575.84;5000669;28;20056;-80
2021/10/05 01:47:22;;;;;;;18.25;7.65;;;;;;;12.71;100.00;97579.19;4982545;28;20541;-78
2021/10/05 01:49:49;;;;;;;12.82;6.72;;;;;;;12.58;100.00;97577.50;4998418;28;20065;-76
2021/10/05 01:52:16;;;;;;;20.67;6.85;;;;;;;12.54;100.00;97568.44;5015412;28;20088;-80
2021/10/05 01:54:43;;;;;;;16.08;7.72;;;;;;;12.52;100.00;97554.38;5016322;28;20068;-80
2021/10/05 01:57:09;;;;;;;14.85;7.13;;;;;;;12.80;100.00;97551.97;5014291;28;20188;-79
2021/10/05 01:59:36;;;;;;;19.65;7.13;;;;;;;12.77;100.00;97544.47;5014677;28;20046;-79
2021/10/05 02:02:03;;;;;;;20.38;7.50;;;;;;;12.92;100.00;97533.00;4998132;28;20107;-81
2021/10/05 02:04:29;;;;;;;15.07;6.63;;;;;;;12.76;100.00;97526.56;5016082;28;20034;-77
2021/10/05 02:06:56;;;;;;;17.83;7.20;;;;;;;12.83;100.00;97518.69;5016007;28;20069;-81
2021/10/05 02:09:22;;;;;;;15.45;7.18;;;;;;;12.69;100.00;97521.69;4998184;28;20049;-80
2021/10/05 02:11:49;;;;;;;19.20;7.50;;;;;;;12.81;100.00;97512.78;4997420;28;20053;-80
2021/10/05 02:14:16;;;;;;;16.27;7.57;;;;;;;12.77;100.00;97511.88;5015855;28;20053;-80
2021/10/05 02:16:42;;;;;;;19.60;7.72;;;;;;;12.79;100.00;97509.63;5000978;28;20057;-79
2021/10/05 02:19:09;;;;;;;15.63;7.43;;;;;;;12.88;100.00;97497.53;5021293;28;20077;-78
2021/10/05 02:21:36;;;;;;;15.70;7.10;;;;;;;12.88;100.00;97483.16;5020683;28;20053;-78
2021/10/05 02:26:46;;;;;;;13.75;7.60;;;;;;;12.97;100.00;97487.41;5016052;28;20050;-78
2021/10/05 02:29:13;;;;;;;17.52;8.13;;;;;;;12.87;100.00;97485.09;5015161;28;20046;-80
2021/10/05 02:31:40;;;;;;;16.65;8.15;;;;;;;12.95;100.00;97492.38;4980827;28;20041;-80
2021/10/05 02:34:06;;;;;;;18.05;7.43;;;;;;;12.77;100.00;97485.50;4997687;28;20074;-78
2021/10/05 02:36:33;;;;;;;18.67;8.55;;;;;;;12.80;100.00;97490.25;5014946;28;20042;-80
2021/10/05 02:38:59;;;;;;;25.08;9.27;;;;;;;12.78;100.00;97475.41;4998138;28;20093;-81
2021/10/05 02:41:29;;;;;;;19.38;9.40;;;;;;;12.92;100.00;97474.03;4998581;28;20038;-79
2021/10/05 02:43:56;;;;;;;24.40;9.73;;;;;;;12.92;100.00;97465.06;5014496;28;20512;-81
2021/10/05 02:46:22;;;;;;;19.85;9.45;;;;;;;12.91;100.00;97475.16;5014538;28;20057;-80
2021/10/05 02:48:49;;;;;;;21.95;9.55;;;;;;;12.79;100.00;97466.94;5014968;28;20046;-82
2021/10/05 02:51:16;;;;;;;22.50;10.00;;;;;;;12.69;100.00;97466.56;5015218;28;20124;-83
2021/10/05 02:53:42;;;;;;;25.08;10.60;;;;;;;12.71;100.00;97456.94;4983020;28;20425;-78
2021/10/05 02:56:09;;;;;;;21.65;10.20;;;;;;;12.66;100.00;97454.44;5015545;28;20544;-78
2021/10/05 02:58:35;;;;;;;20.42;10.02;;;;;;;12.74;100.00;97460.94;5012328;28;20046;-78
2021/10/05 03:01:02;;;;;;;26.98;11.45;;;;;;;12.76;100.00;97442.38;5013571;28;20044;-80
2021/10/05 03:03:29;;;;;;;23.92;12.38;;;;;;;12.79;100.00;97452.56;4995792;28;20460;-78
2021/10/05 03:05:56;;;;;;;21.60;11.95;;;;;;;12.87;100.00;97447.06;5013445;28;20425;-80
2021/10/05 03:08:25;;;;;;;30.98;11.57;;;;;;;12.91;100.00;97449.91;5012304;28;20054;-78
2021/10/05 03:10:51;;;;;;;27.85;12.63;;;;;;;12.86;100.00;97437.31;5013396;28;20053;-78
2021/10/05 03:13:18;;;;;;;25.52;12.60;;;;;;;12.90;100.00;97430.09;5012888;28;20068;-77
2021/10/05 03:15:44;;;;;;;27.63;12.00;;;;;;;12.92;100.00;97422.41;4995285;28;20058;-81
2021/10/05 03:18:12;;;;;;;30.83;12.52;;;;;;;12.98;100.00;97423.00;5013692;28;20046;-79
2021/10/05 03:20:39;;;;;;;25.40;12.55;;;;;;;12.94;100.00;97409.28;4996065;28;20133;-79
2021/10/05 03:23:09;;;;;;;21.65;12.32;;;;;;;13.04;100.00;97413.47;5000403;28;20034;-79
2021/10/05 03:25:35;;;;;;;28.67;13.10;;;;;;;13.01;100.00;97414.94;5012636;28;20042;-78
2021/10/05 03:28:02;;;;;;;29.88;14.05;;;;;;;12.88;100.00;97402.44;5000596;28;20049;-82
2021/10/05 03:30:28;;;;;;;30.63;13.30;;;;;;;13.05;100.00;97399.56;5014807;28;20168;-76
2021/10/05 03:32:55;;;;;;;29.42;13.98;;;;;;;12.99;100.00;97391.97;5019537;28;20125;-78
2021/10/05 03:35:23;;;;;;;33.78;15.07;;;;;;;12.92;100.00;97380.84;5007852;28;20430;-77
2021/10/05 03:37:50;;;;;;;28.20;13.65;;;;;;;12.99;100.00;97383.81;5017002;28;20520;-80
2021/10/05 03:40:16;;;;;;;34.60;15.20;;;;;;;12.95;100.00;97372.84;5018227;28;20316;-80
2021/10/05 03:42:43;;;;;;;30.15;15.07;;;;;;;12.95;100.00;97374.75;5017863;28;20053;-77
2021/10/05 03:45:09;;;;;;;27.80;14.88;;;;;;;12.87;100.00;97381.06;5018762;28;20050;-78
2021/10/05 03:47:36;;;;;;;30.83;15.07;;;;;;;12.78;100.00;97369.47;4997577;28;20049;-79
2021/10/05 03:50:08;;;;;;;27.23;14.38;;;;;;;12.70;100.00;97368.44;5013713;28;20037;-77
2021/10/05 03:52:35;;;;;;;26.23;14.07;;;;;;;12.72;100.00;97358.06;5020116;28;20475;-77
2021/10/05 03:55:02;;;;;;;32.95;14.80;;;;;;;12.91;100.00;97354.81;5009369;28;20069;-79
2021/10/05 03:57:29;;;;;;;33.80;14.82;;;;;;;12.94;100.00;97354.94;5014366;28;20050;-78
2021/10/05 03:59:55;;;;;;;32.97;15.00;;;;;;;12.75;100.00;97351.16;5015381;28;20048;-79
2021/10/05 04:02:22;;;;;;;32.83;14.68;;;;;;;12.90;100.00;97345.09;5014889;28;20061;-78
2021/10/05 04:04:49;;;;;;;30.65;14.50;;;;;;;12.59;100.00;97340.13;5020860;28;20053;-78
2021/10/05 04:07:15;;;;;;;32.38;14.65;;;;;;;12.50;100.00;97332.06;5014210;28;20049;-78
2021/10/05 04:09:43;;;;;;;24.00;13.80;;;;;;;12.73;100.00;97334.38;5016736;28;20548;-81
2021/10/05 04:12:10;;;;;;;32.03;14.57;;;;;;;12.87;100.00;97338.41;5015949;28;20038;-78
2021/10/05 04:14:37;;;;;;;29.85;13.85;;;;;;;12.80;100.00;97315.63;5010387;28;20433;-79
2021/10/05 04:17:04;;;;;;;27.23;14.40;;;;;;;12.92;100.00;97327.31;5016754;28;20107;-77
2021/10/05 04:19:30;;;;;;;31.20;13.88;;;;;;;12.62;100.00;97316.94;5019042;28;20049;-79
2021/10/05 04:21:57;;;;;;;28.20;14.07;;;;;;;12.78;100.00;97301.56;5031906;28;20053;-79
2021/10/05 04:24:24;;;;;;;27.33;13.93;;;;;;;12.98;100.00;97295.28;5017418;28;20072;-78
2021/10/05 04:26:51;;;;;;;29.23;14.05;;;;;;;12.84;100.00;97278.50;5015434;28;20046;-80
2021/10/05 04:29:18;;;;;;;30.85;14.98;;;;;;;12.70;100.00;97269.91;5017244;28;20402;-80
2021/10/05 04:31:44;;;;;;;28.17;13.68;;;;;;;12.83;100.00;97260.59;5015432;28;20038;-79
2021/10/05 04:34:11;;;;;;;31.42;15.40;;;;;;;12.48;100.00;97257.50;5014829;28;20050;-79
2021/10/05 04:36:38;;;;;;;31.67;15.18;;;;;;;12.45;100.00;97237.25;5013521;28;20046;-78
2021/10/05 04:39:04;;;;;;;33.28;15.07;;;;;;;12.39;100.00;97227.72;5016422;28;20042;-78
2021/10/05 04:41:31;;;;;;;30.13;14.60;;;;;;;12.75;100.00;97235.13;5014226;28;20041;-79
2021/10/05 04:43:57;;;;;;;26.90;13.95;;;;;;;12.85;100.00;97223.06;5013885;28;20045;-80
2021/10/05 04:46:24;;;;;;;25.77;13.45;;;;;;;12.97;100.00;97231.19;5013845;28;20041;-81
2021/10/05 04:48:51;;;;;;;28.88;14.13;;;;;;;12.80;100.00;97237.63;5014584;28;20041;-79
2021/10/05 04:51:17;;;;;;;28.30;14.00;;;;;;;12.84;100.00;97243.19;5014949;28;20041;-81
2021/10/05 04:53:47;;;;;;;29.30;14.48;;;;;;;12.79;100.00;97240.69;4997438;28;20041;-80
2021/10/05 04:56:13;;;;;;;25.98;13.60;;;;;;;12.61;100.00;97233.88;5013599;28;20049;-79
2021/10/05 04:58:40;;;;;;;35.17;14.70;;;;;;;12.68;100.00;97243.06;5015446;28;20533;-80
2021/10/05 05:01:06;;;;;;;28.30;14.32;;;;;;;12.43;100.00;97244.16;5016070;28;20065;-79
2021/10/05 05:03:33;;;;;;;27.95;13.93;;;;;;;12.77;100.00;97246.47;5008751;28;20050;-80
2021/10/05 05:06:00;;;;;;;30.25;15.50;;;;;;;12.57;100.00;97239.19;4991357;28;20204;-79
2021/10/05 05:08:26;;;;;;;26.15;14.40;;;;;;;12.74;100.00;97227.34;5014000;28;20070;-78
2021/10/05 05:10:53;;;;;;;27.67;14.80;;;;;;;12.58;100.00;97231.84;5015082;28;20046;-82
2021/10/05 05:13:19;;;;;;;29.85;14.60;;;;;;;12.76;100.00;97219.63;5015920;28;20071;-82
2021/10/05 05:15:46;;;;;;;31.20;14.63;;;;;;;12.63;100.00;97215.31;5011479;28;20521;-82
2021/10/05 05:18:12;;;;;;;29.35;14.48;;;;;;;12.83;100.00;97215.22;5015031;28;20057;-84
2021/10/05 05:20:39;;;;;;;30.83;14.27;;;;;;;13.03;100.00;97222.47;5018234;28;20068;-83
2021/10/05 05:23:08;;;;;;;28.58;14.20;;;;;;;13.02;100.00;97222.81;5014780;28;20136;-81
2021/10/05 05:25:35;;;;;;;25.75;13.52;;;;;;;13.04;100.00;97225.97;5016065;28;20208;-85
2021/10/05 05:28:01;;;;;;;27.90;15.15;;;;;;;13.10;100.00;97244.47;5014204;28;20045;-83
2021/10/05 05:30:28;;;;;;;26.58;13.48;;;;;;;13.03;100.00;97225.19;5015034;28;20053;-81
2021/10/05 05:32:55;;;;;;;27.05;13.70;;;;;;;12.91;100.00;97238.78;5014852;28;20046;-80
2021/10/05 05:35:22;;;;;;;26.05;13.48;;;;;;;12.88;100.00;97241.38;5013460;28;20088;-83
2021/10/05 05:37:48;;;;;;;27.85;14.32;;;;;;;13.02;100.00;97239.13;5014034;28;20045;-81
2021/10/05 05:40:15;;;;;;;25.15;12.90;;;;;;;13.16;100.00;97230.66;5014207;28;20064;-83
2021/10/05 05:42:42;;;;;;;22.63;12.75;;;;;;;13.18;100.00;97245.50;5015543;28;20042;-83
2021/10/05 05:45:09;;;;;;;28.52;13.77;;;;;;;13.36;100.00;97238.69;5031411;22;20057;-79
2021/10/05 05:47:36;;;;;;;27.33;12.82;;;;;;;13.16;100.00;97241.53;5000043;28;20144;-79
2021/10/05 05:50:05;;;;;;;27.20;12.60;;;;;;;13.37;100.00;97225.88;5000217;28;20169;-79
2021/10/05 05:52:32;;;;;;;24.88;13.25;;;;;;;13.23;100.00;97220.00;4999761;28;20050;-78
2021/10/05 05:54:59;;;;;;;28.83;13.40;;;;;;;13.26;100.00;97217.41;4998706;28;20775;-79
2021/10/05 05:57:26;;;;;;;28.92;14.05;;;;;;;13.18;100.00;97223.75;4998561;28;20120;-79
2021/10/05 05:59:53;;;;;;;27.58;12.80;;;;;;;13.11;100.00;97224.31;4998820;28;20049;-79
2021/10/05 06:02:19;;;;;;;25.20;13.55;;;;;;;13.11;100.00;97212.63;4998859;28;20144;-78
2021/10/05 06:04:47;;;;;;;31.83;14.45;;;;;;;12.84;100.00;97202.44;4998400;28;20052;-78
2021/10/05 06:07:13;;;;;;;27.58;14.60;;;;;;;12.78;100.00;97204.59;5014533;28;20071;-79
2021/10/05 06:09:40;;;;;;;31.63;13.95;;;;;;;13.15;100.00;97210.03;4999302;28;20056;-79
2021/10/05 06:12:13;;;;;;;31.70;15.02;;;;;;;13.20;100.00;97204.38;4998765;28;20129;-78
2021/10/05 06:14:40;;;;;;;33.33;15.38;;;;;;;13.11;100.00;97213.44;4998520;28;20378;-78
2021/10/05 06:17:07;;;;;;;29.63;14.85;;;;;;;12.98;100.00;97197.47;5017447;28;20073;-78
2021/10/05 06:19:34;;;;;;;31.10;15.68;;;;;;;13.19;100.00;97205.53;4998616;28;20286;-79
2021/10/05 06:22:00;;;;;;;33.88;16.90;;;;;;;13.19;100.00;97197.38;4999527;28;20050;-80
2021/10/05 06:24:27;;;;;;;33.67;15.18;;;;;;;13.06;100.00;97196.53;4999078;28;20433;-79
2021/10/05 06:26:54;;;;;;;29.55;15.15;;;;;;;13.28;100.00;97192.56;4998996;28;20304;-78
2021/10/05 06:29:22;;;;;;;27.35;14.45;;;;;;;13.29;100.00;97194.94;4999854;28;20049;-79
2021/10/05 06:31:49;;;;;;;29.02;14.38;;;;;;;13.03;100.00;97183.66;4997972;28;20045;-77
2021/10/05 06:34:16;;;;;;;32.47;14.70;;;;;;;13.02;100.00;97185.56;4998933;28;20537;-79
2021/10/05 06:36:42;;;;;;;28.63;14.68;;;;;;;13.19;100.00;97173.66;4998537;28;20046;-80
2021/10/05 06:39:09;;;;;;;27.75;14.90;;;;;;;13.20;100.00;97177.97;4999223;28;20053;-79
2021/10/05 06:41:36;;;;;;;33.00;16.13;;;;;;;13.22;100.00;97164.03;4998788;28;20110;-79
2021/10/05 06:44:03;;;;;;;33.13;14.43;;;;;;;13.23;100.00;97163.72;4997816;28;20095;-80
2021/10/05 06:46:30;;;;;;;35.72;16.05;;;;;;;13.28;100.00;97160.75;4997444;28;20057;-79
2021/10/05 06:48:57;;;;;;;35.40;15.70;;;;;;;13.25;100.00;97171.50;4996845;28;20049;-79
2021/10/05 06:51:23;;;;;;;35.83;15.75;;;;;;;13.27;100.00;97166.53;4996846;28;20140;-77
2021/10/05 06:53:50;;;;;;;32.55;15.45;;;;;;;13.23;100.00;97177.31;4996811;28;20049;-79
2021/10/05 06:56:17;;;;;;;35.40;17.25;;;;;;;13.17;100.00;97164.28;4995633;28;20157;-80
2021/10/05 06:58:44;;;;;;;35.28;16.20;;;;;;;13.26;100.00;97160.31;4995359;28;20049;-81
2021/10/05 07:01:10;;;;;;;29.33;16.35;;;;;;;13.29;100.00;97170.47;4995385;28;20068;-79
2021/10/05 07:03:38;;;;;;;32.83;16.40;;;;;;;13.42;100.00;97158.44;4996210;28;20380;-80
2021/10/05 07:06:05;;;;;;;31.77;15.73;;;;;;;13.25;100.00;97160.63;4997459;28;20081;-80
2021/10/05 07:08:31;;;;;;;32.95;16.55;;;;;;;13.49;100.00;97155.94;4996882;28;20325;-81
2021/10/05 07:10:59;;;;;;;34.03;16.75;;;;;;;13.52;100.00;97157.94;4996381;28;20041;-80
2021/10/05 07:13:26;;;;;;;34.28;16.50;;;;;;;13.58;100.00;97147.63;4997468;28;20053;-80
2021/10/05 07:15:53;;;;;;;35.38;16.58;;;;;;;13.65;100.00;97143.16;4995589;28;20111;-81
2021/10/05 07:18:20;;;;;;;31.08;16.35;;;;;;;13.73;100.00;97141.44;4996452;28;20065;-78
2021/10/05 07:20:47;;;;;;;37.22;16.33;;;;;;;13.60;100.00;97143.41;4995993;28;20049;-79
2021/10/05 07:23:14;;;;;;;34.28;15.38;;;;;;;13.61;100.00;97141.50;4996091;28;20073;-78
2021/10/05 07:25:41;;;;;;;33.42;16.02;;;;;;;13.62;100.00;97127.56;4995815;28;20061;-80
2021/10/05 07:28:10;;;;;;;31.98;16.20;;;;;;;13.60;100.00;97121.66;4995849;28;20045;-79
2021/10/05 07:30:38;;;;;;;33.75;16.27;;;;;;;13.52;100.00;97110.94;4995187;28;20111;-79
2021/10/05 07:33:06;;;;;;;34.00;15.48;;;;;;;13.69;100.00;97108.72;4996214;28;20128;-78
2021/10/05 07:35:33;;;;;;;32.33;15.23;;;;;;;13.74;100.00;97102.22;4995696;28;20478;-80
2021/10/05 07:38:00;;;;;;;34.63;15.85;;;;;;;13.75;100.00;97096.41;4994794;28;20041;-78
2021/10/05 07:40:28;;;;;;;29.67;15.20;;;;;;;13.73;100.00;97085.09;5013059;28;20049;-81
2021/10/05 07:42:57;;;;;;;29.60;15.85;;;;;;;13.79;100.00;97101.97;4996422;28;20132;-80
2021/10/05 07:45:26;;;;;;;30.13;15.77;;;;;;;13.72;100.00;97094.41;4996399;28;20085;-78
2021/10/05 07:47:53;;;;;;;32.67;14.95;;;;;;;13.55;100.00;97083.84;4996228;28;20041;-78
2021/10/05 07:50:21;;;;;;;34.42;16.85;;;;;;;13.13;100.00;97077.22;5002726;28;20620;-79
2021/10/05 07:52:48;;;;;;;31.38;16.35;;;;;;;13.29;100.00;97088.91;5008071;28;20080;-79
2021/10/05 07:55:15;;;;;;;34.03;16.35;;;;;;;13.45;100.00;97084.34;5007585;28;20083;-79
2021/10/05 07:57:43;;;;;;;34.13;16.67;;;;;;;13.48;100.00;97082.84;5006915;28;20168;-79
2021/10/05 08:00:11;;;;;;;33.10;17.15;;;;;;;13.40;100.00;97067.47;5003337;28;20089;-79
2021/10/05 08:02:39;;;;;;;32.30;16.95;;;;;;;13.32;100.00;97066.50;4995566;28;20048;-78
2021/10/05 08:05:06;;;;;;;35.85;17.92;;;;;;;13.33;100.00;97062.66;4995580;28;20057;-78
2021/10/05 08:07:33;;;;;;;39.42;17.30;;;;;;;13.43;100.00;97067.59;4994870;28;20045;-79
2021/10/05 08:10:00;;;;;;;39.17;18.33;;;;;;;13.66;100.00;97054.22;4995668;28;20104;-80
2021/10/05 08:12:26;;;;;;;32.55;17.13;;;;;;;13.82;100.00;97054.22;4994775;28;20080;-79
2021/10/05 08:14:53;;;;;;;37.70;17.27;;;;;;;13.93;100.00;97050.66;4994793;28;20076;-79
2021/10/05 08:17:20;;;;;;;32.42;16.60;;;;;;;14.10;100.00;97063.91;5011063;28;20494;-79
2021/10/05 08:19:47;;;;;;;34.15;16.88;;;;;;;13.95;100.00;97051.09;4997006;28;20053;-79
2021/10/05 08:22:15;;;;;;;31.45;16.90;;;;;;;13.99;100.00;97053.91;4999000;28;20517;-78
2021/10/05 08:24:42;;;;;;;35.75;16.35;;;;;;;13.99;100.00;97064.78;4999153;28;20055;-77
2021/10/05 08:27:08;;;;;;;32.83;16.13;;;;;;;13.68;100.00;97081.84;4998568;28;20143;-80
2021/10/05 08:29:40;;;;;;;31.40;16.38;;;;;;;13.64;100.00;97083.69;4998662;28;20084;-80
2021/10/05 08:32:07;;;;;;;35.83;16.88;;;;;;;13.77;100.00;97085.22;4997831;28;20049;-80
2021/10/05 08:34:34;;;;;;;35.63;17.45;;;;;;;13.78;100.00;97094.97;4998317;28;20052;-78
2021/10/05 08:37:02;;;;;;;37.33;18.42;;;;;;;13.89;100.00;97087.06;4998208;28;20046;-78
2021/10/05 08:39:29;;;;;;;39.58;18.77;;;;;;;13.89;100.00;97085.13;4997691;28;20045;-77
2021/10/05 08:41:56;;;;;;;44.28;19.73;;;;;;;13.82;100.00;97078.72;4998591;28;20115;-78
2021/10/05 08:44:24;;;;;;;38.55;18.77;;;;;;;14.03;100.00;97058.28;4997993;28;20117;-78
2021/10/05 08:46:55;;;;;;;40.67;20.08;;;;;;;14.13;100.00;97070.56;4998678;28;20049;-79
2021/10/05 08:49:23;;;;;;;36.30;19.80;;;;;;;14.07;100.00;97069.25;4999786;28;20053;-78
2021/10/05 08:51:52;;;;;;;43.58;21.05;;;;;;;14.02;100.00;97064.06;4999008;28;20050;-80
2021/10/05 08:54:19;;;;;;;42.50;20.77;;;;;;;14.00;100.00;97077.25;4998719;28;20702;-79
2021/10/05 08:56:47;;;;;;;38.95;20.88;;;;;;;13.82;100.00;97070.56;5015141;28;20563;-81
2021/10/05 08:59:14;;;;;;;36.95;19.60;;;;;;;13.77;100.00;97074.31;4999255;28;20149;-80
2021/10/05 09:01:42;;;;;;;40.33;20.58;;;;;;;13.87;100.00;97064.84;4998513;28;20128;-79
2021/10/05 09:04:09;;;;;;;42.50;20.90;;;;;;;13.91;100.00;97057.59;5015080;28;20046;-78
2021/10/05 09:06:37;;;;;;;35.47;20.05;;;;;;;13.72;100.00;97067.22;4997987;28;20107;-77
2021/10/05 09:09:05;;;;;;;33.28;19.40;;;;;;;13.72;100.00;97060.97;4997088;28;20046;-80
2021/10/05 09:11:46;;;;;;;34.92;19.00;;;;;;;13.60;100.00;97069.22;4998109;28;20053;-80
2021/10/05 09:14:14;;;;;;;39.33;20.75;;;;;;;13.52;100.00;97064.72;4999503;28;20099;-79
2021/10/05 09:16:43;;;;;;;41.30;20.88;;;;;;;13.58;100.00;97066.84;4998829;28;20045;-79
2021/10/05 09:19:15;;;;;;;37.10;20.33;;;;;;;13.64;100.00;97065.44;4999727;28;20490;-78
2021/10/05 09:21:48;;;;;;;35.42;19.23;;;;;;;13.60;100.00;97069.22;4999283;28;20136;-80
2021/10/05 09:24:28;;;;;;;34.50;19.10;;;;;;;13.44;100.00;97058.31;4999799;28;20111;-80
2021/10/05 09:27:02;;;;;;;32.60;19.02;;;;;;;13.53;100.00;97063.56;4998342;28;20053;-80
2021/10/05 09:29:39;;;;;;;40.17;20.40;;;;;;;13.56;100.00;97063.66;4998313;28;20065;-81
2021/10/05 09:32:11;;;;;;;35.45;20.25;;;;;;;13.44;100.00;97052.88;5000085;28;20249;-80
2021/10/05 09:34:38;;;;;;;37.65;19.90;;;;;;;13.40;100.00;97064.75;5000204;28;20095;-80
2021/10/05 09:37:07;;;;;;;32.08;18.52;;;;;;;13.31;100.00;97062.22;5002465;28;20049;-79
2021/10/05 09:39:43;;;;;;;35.08;18.27;;;;;;;13.41;100.00;97066.34;4999159;28;20483;-80
2021/10/05 09:42:18;;;;;;;29.80;17.10;;;;;;;13.34;100.00;97066.16;5013575;28;20437;-80
2021/10/05 09:44:50;;;;;;;29.55;16.75;;;;;;;13.48;100.00;97055.66;4998814;28;20186;-80
2021/10/05 09:47:17;;;;;;;22.55;14.63;;;;;;;13.16;100.00;97062.94;4997994;28;20053;-79
2021/10/05 09:49:45;;;;;;;22.15;14.00;;;;;;;13.32;100.00;97062.97;4998523;28;20077;-79
2021/10/05 09:52:12;;;;;;;20.63;13.68;;;;;;;13.24;100.00;97062.00;4998696;28;20466;-78
2021/10/05 09:54:40;;;;;;;25.25;14.57;;;;;;;13.33;100.00;97073.53;4999311;28;20054;-79
2021/10/05 09:57:07;;;;;;;22.98;14.50;;;;;;;13.27;100.00;97060.50;4998809;28;20048;-80
2021/10/05 09:59:34;;;;;;;30.20;15.32;;;;;;;13.18;100.00;97068.81;4999044;28;20386;-79
2021/10/05 10:02:02;;;;;;;23.40;14.63;;;;;;;13.30;100.00;97079.66;4998766;28;20116;-79
2021/10/05 10:04:30;;;;;;;25.83;14.02;;;;;;;13.11;100.00;97076.75;4999798;28;20632;-80
2021/10/05 10:06:58;;;;;;;25.13;14.00;;;;;;;13.19;100.00;97072.34;5000009;28;20055;-80
2021/10/05 10:09:25;;;;;;;20.23;11.85;;;;;;;13.30;100.00;97062.53;4998968;28;20114;-78
2021/10/05 10:11:53;;;;;;;19.85;11.85;;;;;;;13.31;100.00;97059.50;4999103;28;20057;-80
2021/10/05 10:14:20;;;;;;;17.88;10.85;;;;;;;13.17;100.00;97047.41;4998991;28;20076;-80
2021/10/05 10:16:49;;;;;;;16.58;10.18;;;;;;;13.30;100.00;97048.94;4999020;28;20045;-80
2021/10/05 10:19:32;;;;;;;15.45;9.75;;;;;;;13.31;100.00;97055.97;4997382;28;20568;-81
2021/10/05 10:22:12;;;;;;;15.95;9.63;;;;;;;13.48;100.00;97059.19;4998010;28;20041;-80
2021/10/05 10:24:51;;;;;;;15.20;7.97;;;;;;;13.25;100.00;97057.34;4999356;28;20045;-80
2021/10/05 10:27:20;;;;;;;12.32;8.30;;;;;;;13.25;100.00;97058.16;4997685;28;20057;-80
2021/10/05 10:30:09;;;;;;;12.43;7.75;;;;;;;13.15;100.00;97053.19;5000821;28;20113;-79
2021/10/05 10:32:46;;;;;;;13.68;6.88;;;;;;;13.17;100.00;97059.06;4998384;28;20090;-79
2021/10/05 10:35:13;;;;;;;14.27;7.80;;;;;;;13.15;100.00;97041.53;4998741;28;20049;-80
2021/10/05 10:37:54;;;;;;;16.55;8.77;;;;;;;13.33;100.00;97056.41;4998028;28;20427;-81
2021/10/05 10:40:34;;;;;;;14.57;8.55;;;;;;;13.44;100.00;97066.47;4997935;28;20045;-78
2021/10/05 10:43:16;;;;;;;13.15;8.25;;;;;;;13.40;100.00;97057.41;4996850;28;20045;-79
2021/10/05 10:46:00;;;;;;;12.55;8.27;;;;;;;13.45;100.00;97080.81;4999020;28;20138;-78
2021/10/05 10:48:30;;;;;;;12.65;7.22;;;;;;;13.41;100.00;97071.78;4999208;28;20063;-79
2021/10/05 10:51:13;;;;;;;12.07;7.28;;;;;;;13.46;100.00;97072.34;5000551;28;20073;-80
2021/10/05 10:53:42;;;;;;;11.65;7.05;;;;;;;13.73;100.00;97060.63;4999251;28;20505;-80
2021/10/05 11:00:12;;;;;;;8.88;6.22;;;;;;;13.80;100.00;97059.25;5012554;28;20125;-77
2021/10/05 11:02:42;;;;;;;;;;;;;;;13.59;100.00;97062.19;4995863;28;20140;-78
2021/10/05 11:05:11;;;;;;;8.55;5.47;;;;;;;13.66;100.00;97068.59;5012422;28;19931;-80
2021/10/05 11:07:37;;;;;;;8.23;5.65;;;;;;;13.62;100.00;97077.81;4995539;28;20064;-77
2021/10/05 11:10:09;;;;;;;8.32;5.70;;;;;;;13.65;100.00;97072.44;4994746;28;20073;-78
2021/10/05 11:12:39;;;;;;;10.52;5.50;;;;;;;13.77;100.00;97055.28;4996174;28;20108;-79
2021/10/05 11:15:08;;;;;;;9.80;5.88;;;;;;;13.82;100.00;97076.00;4996755;28;20458;-78
2021/10/05 11:17:36;;;;;;;7.47;5.05;;;;;;;13.85;100.00;97083.47;4995784;28;20056;-79
2021/10/05 11:20:05;;;;;;;7.70;5.45;;;;;;;13.77;100.00;97070.81;4996676;28;20049;-78
2021/10/05 11:22:33;;;;;;;8.65;5.22;;;;;;;13.85;100.00;97089.69;4996228;28;20489;-80